createdAt,value
2019-02-19T00:01:29.267Z,8.33
2019-02-19T00:03:34.089Z,7.70
2019-02-19T00:05:41.382Z,7.43
2019-02-19T00:07:46.227Z,7.17
2019-02-19T00:09:51.111Z,7.20
2019-02-19T00:11:56.333Z,6.90
2019-02-19T00:14:01.108Z,7.23
2019-02-19T00:16:06.939Z,7.73
2019-02-19T00:18:11.687Z,7.57
2019-02-19T00:20:16.808Z,7.90
2019-02-19T00:22:21.998Z,7.93
2019-02-19T00:24:26.943Z,6.80
2019-02-19T00:26:31.769Z,8.37
2019-02-19T00:28:37.087Z,8.17
2019-02-19T00:30:41.915Z,8.10
2019-02-19T00:32:46.745Z,7.63
2019-02-19T00:34:52.570Z,7.17
2019-02-19T00:36:57.622Z,7.83
2019-02-19T00:39:02.558Z,7.77
2019-02-19T00:41:07.654Z,7.50
2019-02-19T00:43:12.460Z,7.63
2019-02-19T00:45:17.636Z,7.47
2019-02-19T00:47:22.882Z,7.67
2019-02-19T00:49:27.733Z,6.83
2019-02-19T00:51:32.457Z,7.23
2019-02-19T00:53:37.222Z,8.10
2019-02-19T00:55:42.464Z,8.37
2019-02-19T00:57:47.195Z,8.20
2019-02-19T00:59:52.093Z,7.80
2019-02-19T01:01:56.830Z,8.63
2019-02-19T01:04:01.605Z,7.73
2019-02-19T01:06:06.403Z,8.27
2019-02-19T01:08:11.365Z,7.83
2019-02-19T01:10:16.170Z,8.80
2019-02-19T01:12:20.938Z,9.07
2019-02-19T01:14:25.732Z,8.50
2019-02-19T01:16:31.082Z,10.50
2019-02-19T01:18:35.822Z,10.23
2019-02-19T01:20:41.493Z,9.20
2019-02-19T01:22:46.243Z,10.20
2019-02-19T01:24:56.297Z,10.50
2019-02-19T01:27:01.671Z,10.50
2019-02-19T01:29:06.416Z,11.20
2019-02-19T01:31:11.443Z,11.60
2019-02-19T01:33:16.726Z,12.13
2019-02-19T01:35:22.071Z,11.77
2019-02-19T01:37:26.810Z,13.13
2019-02-19T01:39:31.949Z,14.10
2019-02-19T01:41:36.902Z,13.40
2019-02-19T01:43:41.742Z,12.90
2019-02-19T01:45:46.444Z,13.53
2019-02-19T01:47:51.305Z,14.03
2019-02-19T01:49:56.582Z,14.33
2019-02-19T01:52:02.287Z,15.70
2019-02-19T01:54:07.077Z,15.30
2019-02-19T01:56:12.408Z,14.73
2019-02-19T01:58:17.136Z,15.97
2019-02-19T02:00:29.044Z,15.27
2019-02-19T02:02:33.976Z,14.57
2019-02-19T02:04:40.060Z,14.50
2019-02-19T02:06:44.809Z,14.10
2019-02-19T02:08:49.638Z,14.07
2019-02-19T02:10:54.378Z,14.87
2019-02-19T02:12:59.240Z,14.20
2019-02-19T02:15:04.133Z,15.60
2019-02-19T02:17:08.959Z,14.83
2019-02-19T02:19:13.746Z,15.13
2019-02-19T02:21:18.538Z,15.93
2019-02-19T02:23:23.318Z,14.90
2019-02-19T02:25:28.276Z,16.03
2019-02-19T02:27:33.039Z,16.27
2019-02-19T02:29:37.820Z,16.83
2019-02-19T02:31:42.904Z,16.57
2019-02-19T02:33:48.217Z,17.90
2019-02-19T02:35:53.024Z,16.43
2019-02-19T02:37:57.798Z,16.13
2019-02-19T02:40:02.657Z,15.27
2019-02-19T02:42:07.380Z,18.70
2019-02-19T02:44:12.162Z,16.60
2019-02-19T02:46:17.408Z,17.47
2019-02-19T02:48:22.190Z,17.00
2019-02-19T02:50:26.934Z,16.37
2019-02-19T02:52:31.710Z,16.87
2019-02-19T02:54:36.523Z,17.40
2019-02-19T02:56:41.306Z,17.10
2019-02-19T02:58:46.092Z,17.90
2019-02-19T03:00:50.888Z,17.27
2019-02-19T03:02:55.708Z,17.37
2019-02-19T03:05:00.480Z,17.33
2019-02-19T03:07:11.461Z,16.70
2019-02-19T03:09:16.343Z,16.27
2019-02-19T03:11:22.092Z,17.20
2019-02-19T03:13:26.987Z,17.07
2019-02-19T03:15:32.258Z,17.07
2019-02-19T03:17:37.522Z,17.80
2019-02-19T03:19:42.982Z,18.07
2019-02-19T03:21:48.278Z,17.40
2019-02-19T03:23:53.569Z,18.03
2019-02-19T03:25:59.165Z,19.07
2019-02-19T03:28:04.394Z,18.50
2019-02-19T03:30:11.035Z,19.60
2019-02-19T03:32:16.684Z,19.03
2019-02-19T03:34:21.482Z,20.13
2019-02-19T03:36:26.241Z,17.77
2019-02-19T03:38:31.215Z,20.33
2019-02-19T03:40:36.190Z,20.03
2019-02-19T03:42:41.084Z,21.00
2019-02-19T03:44:45.897Z,21.33
2019-02-19T03:46:50.713Z,20.20
2019-02-19T03:48:55.547Z,19.00
2019-02-19T03:51:00.307Z,20.60
2019-02-19T03:53:05.084Z,19.90
2019-02-19T03:55:10.188Z,20.60
2019-02-19T03:57:15.002Z,19.30
2019-02-19T03:59:19.790Z,20.90
2019-02-19T04:01:24.614Z,19.70
2019-02-19T04:03:29.663Z,20.10
2019-02-19T04:05:34.423Z,20.00
2019-02-19T04:07:39.385Z,21.50
2019-02-19T04:09:44.687Z,21.63
2019-02-19T04:11:49.825Z,21.27
2019-02-19T04:13:54.677Z,19.60
2019-02-19T04:15:59.714Z,20.10
2019-02-19T04:18:06.393Z,19.83
2019-02-19T04:20:19.597Z,20.50
2019-02-19T04:22:25.519Z,20.73
2019-02-19T04:24:30.636Z,20.77
2019-02-19T04:26:36.935Z,22.00
2019-02-19T04:28:41.870Z,20.67
2019-02-19T04:30:46.860Z,20.40
2019-02-19T04:32:51.629Z,21.27
2019-02-19T04:34:56.850Z,22.70
2019-02-19T04:37:02.302Z,20.13
2019-02-19T04:39:07.543Z,20.90
2019-02-19T04:41:12.464Z,20.07
2019-02-19T04:43:17.379Z,22.37
2019-02-19T04:45:22.142Z,22.90
2019-02-19T04:47:27.348Z,20.67
2019-02-19T04:49:32.326Z,21.17
2019-02-19T04:51:37.192Z,22.90
2019-02-19T04:53:42.040Z,20.93
2019-02-19T04:55:47.059Z,23.50
2019-02-19T04:57:51.858Z,22.30
2019-02-19T04:59:56.693Z,22.23
2019-02-19T05:02:01.621Z,23.60
2019-02-19T05:04:06.460Z,23.40
2019-02-19T05:06:11.247Z,22.50
2019-02-19T05:08:16.046Z,23.10
2019-02-19T05:10:20.835Z,23.67
2019-02-19T05:12:26.075Z,24.20
2019-02-19T05:14:30.863Z,24.43
2019-02-19T05:16:40.744Z,23.53
2019-02-19T05:18:42.687Z,23.87
2019-02-19T05:20:47.962Z,23.57
2019-02-19T05:22:52.700Z,24.43
2019-02-19T05:24:57.461Z,24.37
2019-02-19T05:27:02.759Z,25.33
2019-02-19T05:29:07.954Z,25.50
2019-02-19T05:31:13.863Z,24.40
2019-02-19T05:33:19.023Z,26.13
2019-02-19T05:35:23.915Z,25.33
2019-02-19T05:37:29.164Z,24.73
2019-02-19T05:39:33.958Z,25.70
2019-02-19T05:41:38.725Z,24.90
2019-02-19T05:43:43.458Z,26.27
2019-02-19T05:45:48.344Z,25.47
2019-02-19T05:47:53.094Z,27.07
2019-02-19T05:50:04.007Z,24.90
2019-02-19T05:52:08.806Z,25.07
2019-02-19T05:54:13.625Z,25.13
2019-02-19T05:56:18.524Z,25.77
2019-02-19T05:58:23.796Z,25.10
2019-02-19T06:00:29.103Z,25.60
2019-02-19T06:02:34.125Z,24.63
2019-02-19T06:04:39.263Z,24.03
2019-02-19T06:06:50.775Z,25.27
2019-02-19T06:08:55.490Z,23.27
2019-02-19T06:11:00.288Z,22.70
2019-02-19T06:13:05.010Z,23.67
2019-02-19T06:15:10.137Z,22.17
2019-02-19T06:17:15.022Z,22.00
2019-02-19T06:19:19.822Z,20.60
2019-02-19T06:21:25.031Z,21.30
2019-02-19T06:23:30.615Z,22.17
2019-02-19T06:25:35.405Z,21.47
2019-02-19T06:27:40.181Z,20.50
2019-02-19T06:29:44.904Z,18.00
2019-02-19T06:31:50.086Z,18.70
2019-02-19T06:33:54.841Z,19.10
2019-02-19T06:35:59.935Z,17.40
2019-02-19T06:38:05.070Z,19.40
2019-02-19T06:40:16.761Z,18.80
2019-02-19T06:42:21.532Z,17.60
2019-02-19T06:44:26.221Z,17.53
2019-02-19T06:46:30.963Z,16.70
2019-02-19T06:48:35.728Z,17.20
2019-02-19T06:50:40.988Z,15.20
2019-02-19T06:52:46.199Z,16.23
2019-02-19T06:54:50.918Z,16.30
2019-02-19T06:56:55.777Z,16.37
2019-02-19T06:59:00.532Z,16.40
2019-02-19T07:01:05.210Z,16.10
2019-02-19T07:03:27.794Z,15.63
2019-02-19T07:05:33.061Z,14.60
2019-02-19T07:07:38.191Z,14.53
2019-02-19T07:09:42.971Z,15.63
2019-02-19T07:11:47.678Z,15.10
2019-02-19T07:13:52.496Z,15.07
2019-02-19T07:15:57.261Z,14.57
2019-02-19T07:18:02.009Z,15.30
2019-02-19T07:20:06.788Z,16.00
2019-02-19T07:22:11.511Z,15.10
2019-02-19T07:24:16.247Z,16.17
2019-02-19T07:26:20.972Z,16.10
2019-02-19T07:28:25.801Z,16.20
2019-02-19T07:30:30.573Z,15.50
2019-02-19T07:32:35.313Z,15.67
2019-02-19T07:34:41.024Z,16.70
2019-02-19T07:36:45.909Z,15.23
2019-02-19T07:38:52.438Z,16.40
2019-02-19T07:40:57.020Z,17.10
2019-02-19T07:43:01.745Z,15.43
2019-02-19T07:45:06.979Z,16.67
2019-02-19T07:47:11.800Z,15.80
2019-02-19T07:49:16.602Z,16.43
2019-02-19T07:51:21.311Z,16.07
2019-02-19T07:53:26.055Z,15.10
2019-02-19T07:55:30.790Z,16.67
2019-02-19T07:57:35.608Z,16.87
2019-02-19T07:59:40.381Z,15.73
2019-02-19T08:01:45.664Z,16.73
2019-02-19T08:03:50.483Z,15.70
2019-02-19T08:05:55.628Z,15.63
2019-02-19T08:08:00.453Z,14.67
2019-02-19T08:10:05.690Z,13.57
2019-02-19T08:12:10.542Z,14.00
2019-02-19T08:14:15.856Z,14.83
2019-02-19T08:16:20.642Z,14.70
2019-02-19T08:18:25.442Z,13.67
2019-02-19T08:20:33.155Z,13.57
2019-02-19T08:22:38.223Z,13.90
2019-02-19T08:24:43.319Z,13.70
2019-02-19T08:26:50.182Z,12.90
2019-02-19T08:29:02.937Z,14.47
2019-02-19T08:31:01.544Z,14.70
2019-02-19T08:33:06.444Z,13.80
2019-02-19T08:35:11.315Z,13.10
2019-02-19T08:37:16.189Z,13.63
2019-02-19T08:39:21.022Z,11.45
2019-02-19T08:41:25.753Z,12.90
2019-02-19T08:43:30.616Z,11.57
2019-02-19T08:45:38.867Z,12.17
2019-02-19T08:47:44.019Z,10.10
2019-02-19T08:49:49.504Z,10.53
2019-02-19T08:51:56.128Z,10.80
2019-02-19T08:54:00.844Z,10.68
2019-02-19T08:56:05.740Z,10.60
2019-02-19T08:58:10.967Z,10.18
2019-02-19T09:00:16.114Z,10.90
2019-02-19T09:02:20.872Z,10.20
2019-02-19T09:04:26.006Z,11.27
2019-02-19T09:06:30.799Z,11.27
2019-02-19T09:08:37.096Z,12.10
2019-02-19T09:10:43.390Z,14.03
2019-02-19T09:12:52.574Z,16.43
2019-02-19T09:15:03.764Z,14.60
2019-02-19T09:17:13.885Z,13.10
2019-02-19T09:19:38.270Z,10.40
2019-02-19T09:21:49.668Z,10.40
2019-02-19T09:23:54.745Z,9.67
2019-02-19T09:25:59.677Z,10.53
2019-02-19T09:28:05.426Z,10.07
2019-02-19T09:30:21.475Z,8.93
2019-02-19T09:32:26.766Z,9.10
2019-02-19T09:34:36.860Z,8.33
2019-02-19T09:36:42.167Z,9.47
2019-02-19T09:38:58.734Z,9.10
2019-02-19T09:41:06.658Z,9.70
2019-02-19T09:43:11.893Z,9.20
2019-02-19T09:45:53.764Z,9.20
2019-02-19T09:48:04.334Z,9.70
2019-02-19T09:50:25.912Z,9.30
2019-02-19T09:52:30.808Z,9.43
2019-02-19T09:54:35.806Z,8.80
2019-02-19T09:56:40.844Z,10.30
2019-02-19T09:58:46.040Z,8.83
2019-02-19T10:00:57.298Z,8.90
2019-02-19T10:03:02.481Z,8.90
2019-02-19T10:05:08.882Z,8.80
2019-02-19T10:07:16.106Z,9.80
2019-02-19T10:09:22.249Z,8.10
2019-02-19T10:11:27.890Z,8.30
2019-02-19T10:13:37.941Z,9.43
2019-02-19T10:16:01.863Z,8.70
2019-02-19T10:18:31.576Z,8.27
2019-02-19T10:20:52.818Z,7.63
2019-02-19T10:22:58.831Z,7.83
2019-02-19T10:26:25.027Z,7.63
2019-02-19T10:28:49.998Z,8.10
2019-02-19T10:30:58.360Z,7.27
2019-02-19T10:35:59.235Z,6.77
2019-02-19T10:38:14.289Z,7.40
2019-02-19T10:40:38.415Z,6.50
2019-02-19T10:42:43.518Z,6.87
2019-02-19T10:44:48.358Z,5.80
2019-02-19T10:46:53.153Z,6.57
2019-02-19T10:48:58.000Z,6.27
2019-02-19T10:51:02.726Z,5.83
2019-02-19T10:53:07.842Z,6.30
2019-02-19T10:55:12.571Z,5.90
2019-02-19T10:57:17.725Z,6.20
2019-02-19T10:59:22.569Z,5.90
2019-02-19T11:01:27.644Z,5.70
2019-02-19T11:03:32.849Z,5.93
2019-02-19T11:05:38.230Z,5.40
2019-02-19T11:07:43.416Z,6.27
2019-02-19T11:09:48.289Z,5.37
2019-02-19T11:11:53.422Z,5.77
2019-02-19T11:13:59.124Z,5.70
2019-02-19T11:16:03.925Z,6.00
2019-02-19T11:18:08.665Z,5.60
2019-02-19T11:20:13.619Z,5.83
2019-02-19T11:22:18.299Z,6.00
2019-02-19T11:24:23.420Z,5.97
2019-02-19T11:26:28.182Z,5.77
2019-02-19T11:28:32.941Z,5.53
2019-02-19T11:30:37.732Z,9.70
2019-02-19T11:32:42.574Z,8.67
2019-02-19T11:34:47.741Z,6.20
2019-02-19T11:36:52.494Z,5.07
2019-02-19T11:38:57.644Z,5.70
2019-02-19T11:41:02.421Z,5.40
2019-02-19T11:43:07.194Z,8.80
2019-02-19T11:45:13.638Z,14.43
2019-02-19T11:47:26.297Z,11.57
2019-02-19T11:49:25.266Z,8.27
2019-02-19T11:51:29.983Z,11.50
2019-02-19T11:53:35.139Z,6.43
2019-02-19T11:55:40.050Z,6.23
2019-02-19T11:57:44.939Z,5.47
2019-02-19T11:59:49.688Z,5.37
2019-02-19T12:01:54.876Z,25.33
2019-02-19T12:04:00.052Z,36.47
2019-02-19T12:06:05.185Z,29.53
2019-02-19T12:08:09.983Z,17.83
2019-02-19T12:10:14.801Z,11.67
2019-02-19T12:12:19.774Z,5.37
2019-02-19T12:14:24.542Z,4.47
2019-02-19T12:16:29.265Z,4.67
2019-02-19T12:18:34.023Z,4.67
2019-02-19T12:20:40.951Z,3.77
2019-02-19T12:22:45.731Z,4.07
2019-02-19T12:24:50.489Z,5.53
2019-02-19T12:26:55.243Z,5.70
2019-02-19T12:29:00.194Z,5.37
2019-02-19T12:31:05.195Z,4.63
2019-02-19T12:33:10.344Z,5.00
2019-02-19T12:35:15.071Z,11.17
2019-02-19T12:37:21.354Z,6.60
2019-02-19T12:39:26.105Z,5.20
2019-02-19T12:41:30.841Z,6.33
2019-02-19T12:43:35.577Z,4.80
2019-02-19T12:45:40.349Z,6.70
2019-02-19T12:47:45.120Z,5.00
2019-02-19T12:49:49.958Z,4.70
2019-02-19T12:51:55.606Z,4.77
2019-02-19T12:54:00.534Z,4.43
2019-02-19T12:56:05.331Z,4.43
2019-02-19T12:58:10.079Z,6.97
2019-02-19T13:00:16.031Z,5.20
2019-02-19T13:02:20.824Z,4.60
2019-02-19T13:04:26.102Z,4.30
2019-02-19T13:06:31.436Z,3.70
2019-02-19T13:08:36.172Z,4.40
2019-02-19T13:10:40.929Z,3.83
2019-02-19T13:12:45.642Z,4.07
2019-02-19T13:14:50.832Z,5.37
2019-02-19T13:16:55.658Z,18.67
2019-02-19T13:19:03.401Z,10.80
2019-02-19T13:21:07.169Z,15.10
2019-02-19T13:23:12.684Z,7.00
2019-02-19T13:25:17.448Z,6.77
2019-02-19T13:27:22.825Z,9.43
2019-02-19T13:29:27.837Z,5.57
2019-02-19T13:31:32.536Z,5.10
2019-02-19T13:33:37.311Z,5.13
2019-02-19T13:35:42.064Z,4.60
2019-02-19T13:37:46.798Z,4.00
2019-02-19T13:39:51.660Z,3.20
2019-02-19T13:41:56.422Z,3.40
2019-02-19T13:44:01.226Z,3.63
2019-02-19T13:46:06.092Z,3.37
2019-02-19T13:48:10.994Z,3.40
2019-02-19T13:50:18.248Z,3.43
2019-02-19T13:52:32.733Z,3.57
2019-02-19T13:54:42.354Z,3.83
2019-02-19T13:56:47.132Z,3.60
2019-02-19T13:58:55.368Z,4.00
2019-02-19T14:01:00.546Z,3.13
2019-02-19T14:03:08.889Z,3.30
2019-02-19T14:05:41.702Z,4.10
2019-02-19T14:07:47.099Z,3.73
2019-02-19T14:09:53.830Z,3.40
2019-02-19T14:12:01.377Z,3.60
2019-02-19T14:14:33.089Z,3.90
2019-02-19T14:16:52.184Z,4.50
2019-02-19T14:19:21.000Z,19.10
2019-02-19T14:22:00.033Z,9.93
2019-02-19T14:24:50.156Z,4.20
2019-02-19T14:27:19.802Z,4.57
2019-02-19T14:29:51.627Z,4.63
2019-02-19T14:32:21.490Z,4.33
2019-02-19T14:34:45.465Z,4.27
2019-02-19T14:37:15.501Z,4.20
2019-02-19T14:39:52.296Z,3.63
2019-02-19T14:42:21.003Z,4.47
2019-02-19T14:44:41.879Z,3.93
2019-02-19T14:47:25.614Z,3.37
2019-02-19T14:50:08.872Z,3.80
2019-02-19T14:52:31.599Z,3.80
2019-02-19T14:55:10.254Z,3.47
2019-02-19T14:57:39.820Z,4.20
2019-02-19T14:59:59.238Z,3.80
2019-02-19T15:02:21.573Z,4.67
2019-02-19T15:04:44.158Z,3.20
2019-02-19T15:07:06.442Z,3.73
2019-02-19T15:09:33.365Z,5.03
2019-02-19T15:11:49.127Z,4.93
2019-02-19T15:17:13.201Z,4.60
2019-02-19T15:19:42.961Z,4.33
2019-02-19T15:22:09.745Z,6.00
2019-02-19T15:24:48.805Z,5.90
2019-02-19T15:27:04.791Z,6.07
2019-02-19T15:29:27.415Z,5.60
2019-02-19T15:31:43.409Z,6.20
2019-02-19T15:34:03.073Z,7.20
2019-02-19T15:36:44.964Z,7.10
2019-02-19T15:39:27.253Z,8.30
2019-02-19T15:42:00.257Z,7.70
2019-02-19T15:44:25.634Z,7.20
2019-02-19T15:47:32.971Z,15.90
2019-02-19T15:50:08.637Z,41.67
2019-02-19T15:52:53.581Z,44.03
2019-02-19T15:55:16.553Z,25.57
2019-02-19T15:57:43.502Z,13.53
2019-02-19T16:00:47.546Z,8.80
2019-02-19T16:02:59.632Z,7.77
2019-02-19T16:05:20.668Z,7.33
2019-02-19T16:07:32.479Z,6.67
2019-02-19T16:09:53.487Z,7.30
2019-02-19T16:12:19.192Z,6.73
2019-02-19T16:15:38.292Z,6.70
2019-02-19T16:18:00.675Z,6.37
2019-02-19T16:20:41.135Z,5.70
2019-02-19T16:23:04.230Z,4.87
2019-02-19T16:27:17.272Z,6.23
2019-02-19T16:29:33.094Z,4.90
2019-02-19T16:35:28.027Z,7.40
2019-02-19T16:45:22.564Z,6.60
2019-02-19T16:51:06.843Z,5.53
2019-02-19T16:54:56.810Z,5.47
2019-02-19T16:56:44.067Z,5.23
2019-02-19T16:59:55.915Z,5.33
2019-02-19T17:02:12.452Z,5.43
2019-02-19T17:04:46.822Z,5.63
2019-02-19T17:07:01.940Z,5.93
2019-02-19T17:09:42.984Z,5.93
2019-02-19T17:12:18.093Z,5.90
2019-02-19T17:14:46.739Z,6.50
2019-02-19T17:17:28.693Z,5.77
2019-02-19T17:22:57.791Z,5.47
2019-02-19T17:25:24.028Z,5.30
2019-02-19T17:28:05.700Z,6.00
2019-02-19T17:30:29.637Z,6.50
2019-02-19T17:33:16.235Z,6.30
2019-02-19T17:36:02.091Z,5.50
2019-02-19T17:38:52.741Z,6.17
2019-02-19T17:41:58.776Z,6.40
2019-02-19T17:45:15.721Z,5.77
2019-02-19T17:47:35.022Z,6.20
2019-02-19T17:50:26.701Z,6.47
2019-02-19T17:52:43.447Z,8.53
2019-02-19T17:55:19.047Z,8.87
2019-02-19T17:57:51.276Z,8.10
2019-02-19T18:00:36.138Z,7.90
2019-02-19T18:03:24.444Z,12.00
2019-02-19T18:06:11.642Z,12.17
2019-02-19T18:08:51.923Z,9.90
2019-02-19T18:11:31.633Z,9.10
2019-02-19T18:14:13.644Z,8.73
2019-02-19T18:17:02.382Z,11.90
2019-02-19T18:22:47.271Z,10.30
2019-02-19T18:25:12.957Z,9.50
2019-02-19T18:27:31.420Z,10.07
2019-02-19T18:29:50.281Z,10.20
2019-02-19T18:32:25.052Z,10.60
2019-02-19T20:08:16.515Z,7.40
2019-02-19T20:10:21.481Z,8.20
2019-02-19T20:12:27.055Z,7.67
2019-02-19T20:14:31.974Z,8.47
2019-02-19T20:16:37.076Z,7.50
2019-02-19T20:18:42.179Z,6.40
2019-02-19T20:20:53.453Z,6.73
2019-02-19T20:22:58.782Z,6.97
2019-02-19T20:25:03.655Z,7.17
2019-02-19T20:27:11.616Z,7.13
2019-02-19T20:29:24.652Z,6.23
2019-02-19T20:31:51.791Z,5.97
2019-02-19T20:33:57.334Z,6.37
2019-02-19T20:36:56.930Z,6.03
2019-02-19T20:45:20.340Z,5.50
2019-02-19T20:47:25.681Z,6.07
2019-02-19T20:49:30.733Z,5.80
2019-02-19T20:51:36.714Z,6.13
2019-02-19T20:55:53.770Z,5.87
2019-02-19T20:57:58.939Z,5.63
2019-02-19T21:00:04.232Z,6.60
2019-02-19T21:02:09.472Z,6.03
2019-02-19T21:04:28.801Z,5.57
2019-02-19T21:06:33.843Z,5.53
2019-02-19T21:08:39.023Z,5.63
2019-02-19T21:10:43.971Z,5.87
2019-02-19T21:12:49.195Z,6.50
2019-02-19T21:14:54.273Z,5.30
2019-02-19T21:17:00.060Z,6.10
2019-02-19T21:19:05.323Z,5.77
2019-02-19T21:21:10.445Z,5.93
2019-02-19T21:23:15.610Z,5.77
2019-02-19T21:25:20.621Z,5.23
2019-02-19T21:27:25.809Z,6.20
2019-02-19T21:29:31.260Z,6.47
2019-02-19T21:31:36.500Z,5.80
2019-02-19T21:33:41.472Z,5.80
2019-02-19T21:35:46.905Z,6.50
2019-02-19T21:37:52.214Z,5.83
2019-02-19T21:39:57.072Z,6.20
2019-02-19T21:42:02.036Z,8.83
2019-02-19T21:44:06.778Z,11.20
2019-02-19T21:46:11.560Z,13.23
2019-02-19T21:48:16.426Z,13.27
2019-02-19T21:50:21.162Z,8.00
2019-02-19T21:52:25.995Z,8.80
2019-02-19T21:54:30.747Z,7.80
2019-02-19T21:56:36.006Z,6.80
2019-02-19T21:58:41.127Z,6.70
2019-02-19T22:00:46.216Z,6.63
2019-02-19T22:02:51.059Z,6.40
2019-02-19T22:04:56.257Z,6.60
2019-02-19T22:07:00.974Z,6.47
2019-02-19T22:09:07.110Z,6.13
2019-02-19T22:11:11.876Z,5.60
2019-02-19T22:13:16.579Z,6.53
2019-02-19T22:15:21.366Z,6.33
2019-02-19T22:17:26.049Z,6.40
2019-02-19T22:19:31.143Z,7.13
2019-02-19T22:21:52.786Z,6.23
2019-02-19T22:23:58.594Z,6.03
2019-02-19T22:26:17.923Z,6.50
2019-02-19T22:28:23.013Z,6.97
2019-02-19T22:30:27.880Z,6.50
2019-02-19T22:32:32.820Z,6.40
2019-02-19T22:34:38.076Z,6.20
2019-02-19T22:36:42.871Z,7.53
2019-02-19T22:38:47.676Z,6.20
2019-02-19T22:40:55.233Z,6.60
2019-02-19T22:42:58.879Z,6.03
2019-02-19T22:45:03.702Z,7.47
2019-02-19T22:47:08.471Z,6.90
2019-02-19T22:49:13.268Z,6.70
2019-02-19T22:51:18.052Z,6.60
2019-02-19T22:53:53.826Z,7.67
2019-02-19T22:56:04.602Z,7.37
2019-02-19T22:58:09.351Z,6.43
2019-02-19T23:00:34.301Z,7.37
2019-02-19T23:02:40.002Z,7.57
2019-02-19T23:04:44.869Z,7.00
2019-02-19T23:06:50.142Z,6.50
2019-02-19T23:08:55.400Z,6.90
2019-02-19T23:11:00.160Z,7.80
2019-02-19T23:13:05.438Z,7.40
2019-02-19T23:15:10.171Z,6.43
2019-02-19T23:17:14.953Z,7.07
2019-02-19T23:19:19.728Z,7.97
2019-02-19T23:21:24.487Z,7.43
2019-02-19T23:23:29.683Z,6.93
2019-02-19T23:25:34.410Z,7.07
2019-02-19T23:27:39.299Z,6.67
2019-02-19T23:29:44.125Z,7.20
2019-02-19T23:31:48.858Z,6.60
2019-02-19T23:33:53.658Z,6.97
2019-02-19T23:36:05.939Z,7.20
2019-02-19T23:38:10.654Z,6.67
2019-02-19T23:40:15.503Z,6.90
2019-02-19T23:42:20.274Z,6.40
2019-02-19T23:44:25.103Z,6.47
2019-02-19T23:46:29.871Z,6.17
2019-02-19T23:48:35.469Z,7.03
2019-02-19T23:50:40.716Z,6.20
2019-02-19T23:56:04.290Z,6.30
